Time;durP1;ratioP1;P1;durP2;ratioP2;P2;SDS_P1;SDS_P2;PMS_P1;PMS_P2;Temp;Humidity;BMP_temperature;BMP_pressure;BME280_temperature;BME280_humidity;BME280_pressure;Samples;Min_cycle;Max_cycle;Signal;HPM_P1;HPM_P2
2022/12/15 00:39:16;;;;;;;;;3.75;3.75;;;;;-6.46;82.35;98906.81;5074304;28;8845;-59
2022/12/15 00:41:44;;;;;;;;;13.25;11.50;;;;;-6.47;82.44;98915.47;5074568;28;8883;-58
2022/12/15 00:44:12;;;;;;;;;6.75;6.25;;;;;-6.51;82.24;98910.41;5078278;28;8841;-58
2022/12/15 00:46:55;;;;;;;;;9.25;8.50;;;;;-6.52;82.42;98919.06;5078472;28;8857;-59
2022/12/15 01:22:24;;;;;;;;;3.00;2.00;;;;;-6.72;82.54;98917.06;5077816;28;8865;-58
2022/12/15 01:24:51;;;;;;;;;4.00;4.00;;;;;-6.67;82.94;98925.50;5078028;28;8826;-59
2022/12/15 01:27:19;;;;;;;;;6.00;6.00;;;;;-6.63;82.93;98921.09;5077668;28;8842;-59
2022/12/15 01:29:47;;;;;;;;;3.25;3.25;;;;;-6.61;82.50;98930.53;5077609;28;8848;-59
2022/12/15 01:32:15;;;;;;;;;5.25;5.25;;;;;-6.59;82.16;98933.91;5077560;28;8841;-59
2022/12/15 01:34:43;;;;;;;;;6.25;5.50;;;;;-6.60;82.59;98923.63;5077714;28;9531;-57
2022/12/15 01:37:10;;;;;;;;;3.00;3.00;;;;;-6.61;82.59;98929.69;5077937;28;8826;-59
2022/12/15 01:42:23;;;;;;;;;3.50;3.50;;;;;-6.62;82.14;98938.31;5077865;28;8846;-57
2022/12/15 01:44:52;;;;;;;;;6.75;6.00;;;;;-6.62;81.98;98940.91;5077763;28;8861;-56
2022/12/15 01:47:20;;;;;;;;;3.25;3.25;;;;;-6.64;82.39;98947.88;5076978;28;8904;-57
2022/12/15 01:49:48;;;;;;;;;6.75;6.25;;;;;-6.66;82.25;98942.72;5076987;28;8829;-56
2022/12/15 01:52:15;;;;;;;;;5.00;5.00;;;;;-6.67;82.17;98951.38;5076792;28;8822;-59
2022/12/15 01:54:44;;;;;;;;;5.00;5.00;;;;;-6.67;82.13;98951.38;5075386;28;8930;-59
2022/12/15 01:57:14;;;;;;;;;4.75;4.75;;;;;-6.68;82.14;98954.88;5075009;28;8809;-59
2022/12/15 01:59:42;;;;;;;;;1.75;0.50;;;;;-6.65;81.98;98964.28;5074988;28;8849;-58
2022/12/15 02:02:10;;;;;;;;;6.50;5.00;;;;;-6.64;82.94;98963.41;5075167;28;8830;-57
2022/12/15 02:04:38;;;;;;;;;5.00;5.00;;;;;-6.64;81.96;98964.25;5076010;28;8822;-58
2022/12/15 02:07:06;;;;;;;;;3.75;3.75;;;;;-6.63;82.54;98972.84;5075733;28;8862;-56
2022/12/15 02:09:34;;;;;;;;;4.50;4.50;;;;;-6.66;82.17;98966.03;5076296;28;8850;-59
2022/12/15 02:12:02;;;;;;;;;5.50;5.50;;;;;-6.67;81.84;98969.50;5076469;28;9015;-57
2022/12/15 02:14:29;;;;;;;;;3.00;2.50;;;;;-6.68;82.22;98970.41;5076853;28;8833;-56
2022/12/15 02:16:57;;;;;;;;;6.75;6.25;;;;;-6.69;82.25;98973.03;5076705;28;9496;-56
2022/12/15 02:19:25;;;;;;;;;4.50;4.50;;;;;-6.71;81.96;98969.63;5077151;28;8850;-57
2022/12/15 02:21:53;;;;;;;;;3.67;3.67;;;;;-6.71;82.34;98969.63;5076627;28;8917;-57
2022/12/15 02:24:21;;;;;;;;;4.00;4.00;;;;;-6.73;82.04;98976.59;5076606;28;8802;-58
2022/12/15 02:26:48;;;;;;;;;8.00;6.00;;;;;-6.75;82.21;98979.22;5076449;28;8927;-58
2022/12/15 02:29:16;;;;;;;;;6.00;5.50;;;;;-6.76;82.12;98980.09;5076500;28;8841;-57
2022/12/15 02:31:50;;;;;;;;;6.00;6.00;;;;;-6.75;82.57;98975.78;5076878;28;8852;-56
2022/12/15 02:34:18;;;;;;;;;6.00;6.00;;;;;-6.75;82.28;98983.56;5076297;28;8841;-57
2022/12/15 02:36:46;;;;;;;;;6.25;6.00;;;;;-6.74;82.33;98982.66;5076472;28;8837;-58
2022/12/15 02:39:14;;;;;;;;;5.00;4.00;;;;;-6.73;82.24;98981.75;5076553;28;8814;-57
2022/12/15 02:41:41;;;;;;;;;6.50;6.00;;;;;-6.73;81.99;98982.63;5076339;28;8818;-56
2022/12/15 02:44:09;;;;;;;;;3.75;3.75;;;;;-6.72;82.26;98979.16;5076401;28;8826;-58
2022/12/15 02:46:38;;;;;;;;;7.00;6.25;;;;;-6.67;81.91;98992.78;5076292;28;8830;-57
2022/12/15 02:49:06;;;;;;;;;3.25;3.25;;;;;-6.64;82.01;98990.13;5076314;28;8915;-59
2022/12/15 02:51:34;;;;;;;;;6.00;6.00;;;;;-6.65;82.15;98996.22;5076348;28;8834;-58
2022/12/15 02:54:01;;;;;;;;;2.00;2.00;;;;;-6.67;82.08;98997.13;5076049;28;8822;-59
2022/12/15 02:56:29;;;;;;;;;7.25;6.25;;;;;-6.70;82.09;98992.88;5076125;28;8837;-57
2022/12/15 02:58:57;;;;;;;;;1.00;1.00;;;;;-6.72;81.76;98997.25;5076203;28;8830;-58
2022/12/15 03:01:25;;;;;;;;;4.00;4.00;;;;;-6.73;81.95;99002.47;5075045;28;8923;-58
2022/12/15 03:03:52;;;;;;;;;6.75;5.50;;;;;-6.74;81.98;98993.84;5074955;28;8926;-57
2022/12/15 03:06:20;;;;;;;;;5.50;5.50;;;;;-6.75;81.86;98999.91;5075984;28;8821;-56
2022/12/15 03:08:49;;;;;;;;;7.00;6.25;;;;;-6.75;82.51;98999.91;5076226;28;8825;-59
2022/12/15 03:11:17;;;;;;;;;4.00;4.00;;;;;-6.73;82.11;99005.91;5075561;28;8826;-57
2022/12/15 03:13:45;;;;;;;;;1.50;1.50;;;;;-6.71;82.11;99011.88;5076001;28;8834;-57
2022/12/15 03:16:16;;;;;;;;;1.00;1.00;;;;;-6.68;82.54;99016.97;5075512;28;8826;-58
2022/12/15 03:18:44;;;;;;;;;6.00;6.00;;;;;-6.64;82.31;99018.59;5075737;28;8910;-57
2022/12/15 03:21:11;;;;;;;;;4.00;4.00;;;;;-6.62;82.08;99022.00;5075488;28;8868;-59
2022/12/15 03:23:42;;;;;;;;;10.25;8.75;;;;;-6.60;81.96;99022.78;5075465;28;8867;-58
2022/12/15 03:26:10;;;;;;;;;1.00;1.00;;;;;-6.55;81.65;99018.34;5075762;28;8849;-58
2022/12/15 03:28:38;;;;;;;;;3.00;1.00;;;;;-6.52;81.94;99023.44;5075038;28;8903;-58
2022/12/15 03:31:06;;;;;;;;;4.00;4.00;;;;;-6.48;81.59;99017.31;5075148;28;8849;-59
2022/12/15 03:33:34;;;;;;;;;5.50;5.50;;;;;-6.40;81.48;99027.44;5075688;28;8960;-58
2022/12/15 03:36:02;;;;;;;;;7.25;7.25;;;;;-6.30;81.97;99023.72;5075089;28;8860;-58
2022/12/15 03:38:29;;;;;;;;;4.00;4.00;;;;;-6.22;81.93;99027.78;5075928;28;8805;-58
2022/12/15 03:40:57;;;;;;;;;6.75;6.75;;;;;-6.15;81.47;99018.94;5075617;28;9546;-58
2022/12/15 03:43:24;;;;;;;;;3.00;2.50;;;;;-6.12;81.42;99025.78;5075391;28;8834;-59
2022/12/15 03:45:52;;;;;;;;;4.75;4.00;;;;;-6.12;81.46;99024.06;5075872;28;9515;-56
2022/12/15 03:48:21;;;;;;;;;4.25;3.75;;;;;-6.14;81.34;99022.41;5075266;28;8825;-59
2022/12/15 03:50:48;;;;;;;;;4.00;1.50;;;;;-6.15;81.38;99023.28;5074497;28;9492;-59
2022/12/15 03:53:16;;;;;;;;;3.00;3.00;;;;;-6.19;81.46;99032.03;5075240;28;8845;-59
2022/12/15 03:55:44;;;;;;;;;4.00;4.00;;;;;-6.23;81.19;99038.19;5075438;28;8814;-59
2022/12/15 03:58:12;;;;;;;;;6.00;6.00;;;;;-6.26;81.07;99038.25;5075540;28;8880;-59
2022/12/15 04:00:40;;;;;;;;;6.00;5.00;;;;;-6.30;81.09;99045.25;5075099;28;8806;-59
2022/12/15 04:03:07;;;;;;;;;3.75;3.75;;;;;-6.30;81.43;99034.06;5074997;28;8922;-56
2022/12/15 04:05:35;;;;;;;;;5.75;4.25;;;;;-6.34;81.23;99035.91;5075216;28;8818;-57
2022/12/15 04:08:03;;;;;;;;;6.75;6.00;;;;;-6.37;82.09;99024.78;5075299;28;8833;-58
2022/12/15 04:10:31;;;;;;;;;3.75;3.75;;;;;-6.38;81.56;99030.84;5075003;28;8852;-57
2022/12/15 04:13:02;;;;;;;;;7.00;4.75;;;;;-6.39;81.50;99035.16;5074838;28;8848;-58
2022/12/15 04:15:30;;;;;;;;;4.50;3.25;;;;;-6.39;81.67;99034.34;5075233;28;8833;-58
2022/12/15 04:17:58;;;;;;;;;2.50;2.50;;;;;-6.44;81.43;99031.84;5076951;28;9593;-58
2022/12/15 04:20:24;;;;;;;;;6.00;6.00;;;;;-6.45;81.31;99031.91;5078869;28;8825;-57
2022/12/15 04:22:52;;;;;;;;;6.25;6.25;;;;;-6.48;81.13;99038.00;5079018;28;8858;-59
2022/12/15 05:34:07;;;;;;;;;3.75;3.75;;;;;-6.67;81.89;99070.41;5077080;28;8829;-56
2022/12/15 05:36:34;;;;;;;;;5.50;4.00;;;;;-6.67;81.70;99065.22;5076167;28;8834;-59
2022/12/15 05:39:02;;;;;;;;;1.00;1.00;;;;;-6.65;81.92;99065.22;5076249;28;9471;-58
2022/12/15 05:41:30;;;;;;;;;2.50;2.50;;;;;-6.65;82.18;99068.66;5076255;28;8814;-59
2022/12/15 05:43:58;;;;;;;;;5.00;4.50;;;;;-6.64;81.90;99075.53;5076002;28;8846;-59
2022/12/15 05:46:26;;;;;;;;;1.00;1.00;;;;;-6.64;81.48;99067.75;5076449;28;8822;-58
2022/12/15 05:48:54;;;;;;;;;5.25;4.50;;;;;-6.62;81.89;99072.88;5076566;28;9487;-57
2022/12/15 05:51:22;;;;;;;;;5.25;3.25;;;;;-6.61;81.79;99072.00;5076333;28;8849;-59
2022/12/15 05:53:50;;;;;;;;;13.00;12.00;;;;;-6.62;81.50;99071.16;5076157;28;8829;-58
2022/12/15 05:56:17;;;;;;;;;7.00;7.00;;;;;-6.63;81.44;99079.81;5076413;28;8841;-59
2022/12/15 05:58:45;;;;;;;;;6.00;6.00;;;;;-6.64;81.36;99082.44;5075850;28;8880;-58
2022/12/15 06:01:13;;;;;;;;;8.00;7.00;;;;;-6.67;81.51;99088.53;5075903;28;9575;-58
2022/12/15 06:03:40;;;;;;;;;8.50;8.50;;;;;-6.67;81.47;99092.88;5075527;28;8838;-59
2022/12/15 06:06:08;;;;;;;;;6.00;6.00;;;;;-6.70;81.55;99091.19;5075651;28;8806;-56
2022/12/15 06:08:36;;;;;;;;;7.00;4.00;;;;;-6.71;81.15;99088.66;5075807;28;8837;-57
2022/12/15 06:11:05;;;;;;;;;0.75;0.75;;;;;-6.72;81.85;99097.28;5075714;28;8880;-57
2022/12/15 06:13:34;;;;;;;;;6.25;6.25;;;;;-6.74;81.85;99093.91;5080896;28;8838;-59
2022/12/15 06:16:02;;;;;;;;;4.50;4.00;;;;;-6.74;82.09;99094.72;5074273;28;8822;-59
2022/12/15 06:18:30;;;;;;;;;0.00;0.00;;;;;-6.75;81.68;99098.22;5074555;28;8856;-58
2022/12/15 06:20:57;;;;;;;;;5.50;3.50;;;;;-6.73;81.70;99093.88;5074560;28;9216;-58
2022/12/15 06:23:25;;;;;;;;;4.50;4.00;;;;;-6.72;81.85;99098.16;5074384;28;8842;-58
2022/12/15 06:25:53;;;;;;;;;3.50;3.00;;;;;-6.71;81.61;99104.16;5075250;28;8871;-58
2022/12/15 06:28:22;;;;;;;;;6.75;6.00;;;;;-6.72;81.73;99102.47;5074899;28;8826;-58
2022/12/15 06:30:51;;;;;;;;;5.25;5.00;;;;;-6.73;81.75;99105.94;5075036;28;8837;-59
2022/12/15 06:33:18;;;;;;;;;7.00;6.25;;;;;-6.76;81.53;99109.44;5074697;28;8840;-59
2022/12/15 06:35:46;;;;;;;;;7.75;6.75;;;;;-6.77;81.67;99101.72;5074778;28;8856;-58
2022/12/15 06:38:14;;;;;;;;;6.50;6.50;;;;;-6.78;81.63;99107.78;5074822;28;9533;-59
2022/12/15 06:40:42;;;;;;;;;6.00;6.00;;;;;-6.78;81.67;99118.13;5073178;28;8858;-59
2022/12/15 06:43:10;;;;;;;;;3.75;3.50;;;;;-6.80;81.57;99118.19;5072914;28;8872;-58
2022/12/15 06:45:37;;;;;;;;;8.00;7.00;;;;;-6.80;81.85;99112.16;5073112;28;9232;-57
2022/12/15 06:48:06;;;;;;;;;6.00;5.00;;;;;-6.83;81.42;99110.50;5072724;28;8834;-60
2022/12/15 06:50:34;;;;;;;;;7.00;6.00;;;;;-6.83;81.76;99113.06;5072940;28;8860;-59
2022/12/15 06:53:02;;;;;;;;;9.00;9.00;;;;;-6.83;81.48;99112.25;5072735;28;8840;-59
2022/12/15 06:55:30;;;;;;;;;7.00;6.00;;;;;-6.82;82.37;99113.94;5072904;28;8852;-58
2022/12/15 06:57:58;;;;;;;;;5.50;5.50;;;;;-6.84;81.44;99119.13;5073114;28;8818;-59
2022/12/15 07:00:27;;;;;;;;;5.00;5.00;;;;;-6.85;81.78;99114.00;5071647;28;8825;-59
2022/12/15 07:02:55;;;;;;;;;6.75;6.75;;;;;-6.86;81.77;99110.56;5070624;28;8837;-59
2022/12/15 07:05:23;;;;;;;;;5.50;5.50;;;;;-6.85;81.79;99121.75;5070936;28;8822;-59
2022/12/15 07:07:50;;;;;;;;;6.00;6.00;;;;;-6.84;81.31;99124.31;5069664;28;8893;-59
2022/12/15 07:10:18;;;;;;;;;7.00;5.50;;;;;-6.85;81.74;99125.22;5068483;28;8841;-60
2022/12/15 07:12:47;;;;;;;;;6.25;5.50;;;;;-6.86;81.71;99128.69;5068341;28;8842;-59
2022/12/15 07:15:15;;;;;;;;;1.00;0.50;;;;;-6.84;81.93;99126.91;5069296;28;9542;-58
2022/12/15 07:17:42;;;;;;;;;6.00;5.50;;;;;-6.84;81.74;99126.91;5069303;28;8841;-57
2022/12/15 07:20:10;;;;;;;;;2.50;1.00;;;;;-6.84;81.38;99132.06;5069474;28;8845;-58
2022/12/15 07:22:38;;;;;;;;;4.50;4.50;;;;;-6.84;81.37;99139.00;5069957;28;8838;-60
2022/12/15 07:25:06;;;;;;;;;3.75;3.75;;;;;-6.84;81.70;99139.00;5070417;28;8845;-60
2022/12/15 07:27:34;;;;;;;;;5.00;5.00;;;;;-6.85;81.51;99139.84;5071036;28;8825;-59
2022/12/15 07:30:02;;;;;;;;;0.00;0.00;;;;;-6.85;81.48;99158.84;5070380;28;8841;-59
2022/12/15 07:32:29;;;;;;;;;6.00;6.00;;;;;-6.84;81.42;99149.34;5068402;28;8838;-59
2022/12/15 07:34:57;;;;;;;;;4.50;3.75;;;;;-6.86;81.43;99139.03;5069991;28;8830;-59
2022/12/15 07:37:25;;;;;;;;;6.25;6.25;;;;;-6.85;81.95;99151.06;5071151;28;8825;-59
2022/12/15 07:39:52;;;;;;;;;5.00;5.00;;;;;-6.84;81.48;99155.34;5071974;28;8833;-60
2022/12/15 07:42:21;;;;;;;;;4.00;3.00;;;;;-6.83;81.30;99158.81;5071673;28;8854;-59
2022/12/15 07:44:48;;;;;;;;;9.75;7.00;;;;;-6.82;81.46;99161.34;5070650;28;8845;-59
2022/12/15 07:47:17;;;;;;;;;5.25;5.00;;;;;-6.78;81.51;99165.56;5070387;28;8856;-59
2022/12/15 07:49:44;;;;;;;;;5.50;5.50;;;;;-6.75;81.40;99175.00;5069774;28;8838;-59
2022/12/15 07:52:15;;;;;;;;;4.00;3.00;;;;;-6.73;81.33;99157.69;5071449;28;8845;-60
2022/12/15 07:54:44;;;;;;;;;3.25;3.25;;;;;-6.72;81.53;99175.78;5074535;28;8825;-60
2022/12/15 07:57:12;;;;;;;;;1.00;1.00;;;;;-6.67;80.88;99178.25;5074127;28;8942;-57
2022/12/15 07:59:39;;;;;;;;;7.50;7.50;;;;;-6.64;82.10;99186.78;5074868;28;8898;-58
2022/12/15 08:02:08;;;;;;;;;4.50;4.50;;;;;-6.62;81.50;99177.25;5075551;28;8837;-59
2022/12/15 08:04:36;;;;;;;;;6.00;6.00;;;;;-6.58;81.33;99172.84;5075965;28;8821;-60
2022/12/15 08:07:05;;;;;;;;;2.50;2.50;;;;;-6.52;81.57;99175.31;5076775;28;8829;-59
2022/12/15 08:09:33;;;;;;;;;6.25;6.25;;;;;-6.47;81.35;99170.84;5076531;28;8850;-60
2022/12/15 08:12:01;;;;;;;;;6.50;6.00;;;;;-6.41;81.37;99168.97;5076325;28;8980;-59
2022/12/15 08:14:29;;;;;;;;;4.50;4.50;;;;;-6.37;81.21;99168.00;5076041;28;8826;-60
2022/12/15 08:16:56;;;;;;;;;10.50;6.75;;;;;-6.33;80.94;99166.19;5076173;28;9491;-60
2022/12/15 08:19:24;;;;;;;;;0.00;0.00;;;;;-6.29;81.17;99170.41;5076444;28;8822;-59
2022/12/15 08:21:52;;;;;;;;;6.00;5.00;;;;;-6.26;81.21;99171.19;5076033;28;9551;-60
2022/12/15 08:24:20;;;;;;;;;10.00;9.25;;;;;-6.22;80.83;99177.13;5075243;28;8830;-59
2022/12/15 08:26:48;;;;;;;;;3.00;3.00;;;;;-6.17;80.85;99177.84;5075544;28;8830;-60
2022/12/15 08:29:17;;;;;;;;;3.50;3.50;;;;;-6.08;81.55;99181.06;5075281;28;8880;-59
2022/12/15 08:32:05;;;;;;;;;5.25;4.00;;;;;-5.91;80.77;99185.81;5075498;28;9266;-60
2022/12/15 08:34:34;;;;;;;;;9.75;9.00;;;;;-5.78;80.78;99180.22;5074916;28;8829;-60
2022/12/15 08:37:02;;;;;;;;;6.25;6.25;;;;;-5.71;80.94;99178.31;5074626;28;8876;-59
2022/12/15 08:39:30;;;;;;;;;6.50;6.50;;;;;-5.67;80.67;99182.50;5073819;28;9196;-60
2022/12/15 08:41:58;;;;;;;;;1.75;1.75;;;;;-5.66;80.66;99182.47;5074382;28;8837;-58
2022/12/15 08:44:26;;;;;;;;;8.00;8.00;;;;;-5.65;80.58;99183.31;5074831;28;8849;-59
2022/12/15 08:46:54;;;;;;;;;5.00;4.50;;;;;-5.63;80.31;99179.78;5075148;28;8930;-58
2022/12/15 08:49:22;;;;;;;;;9.00;7.50;;;;;-5.60;80.19;99181.47;5074197;28;8842;-59
2022/12/15 08:51:51;;;;;;;;;6.75;6.75;;;;;-5.57;80.40;99179.63;5074257;28;8826;-59
2022/12/15 08:54:19;;;;;;;;;6.25;6.25;;;;;-5.52;80.68;99182.94;5071408;28;9527;-59
2022/12/15 08:56:47;;;;;;;;;6.25;5.75;;;;;-5.47;80.56;99185.41;5072898;28;8825;-60
2022/12/15 08:59:15;;;;;;;;;3.00;3.00;;;;;-5.43;80.29;99195.66;5072966;28;8802;-60
2022/12/15 09:01:44;;;;;;;;;3.25;3.25;;;;;-5.39;80.10;99192.06;5072523;28;8829;-59
2022/12/15 09:04:12;;;;;;;;;4.75;3.75;;;;;-5.33;80.52;99186.72;5070964;28;8853;-59
2022/12/15 09:06:40;;;;;;;;;6.50;6.50;;;;;-5.22;80.04;99204.56;5072252;28;8856;-58
2022/12/15 09:09:08;;;;;;;;;3.50;3.50;;;;;-5.14;79.70;99197.41;5072921;28;8838;-59
2022/12/15 09:11:36;;;;;;;;;9.75;8.50;;;;;-5.07;79.65;99194.59;5073590;28;8833;-59
2022/12/15 09:14:05;;;;;;;;;4.00;4.00;;;;;-5.00;79.82;99196.13;5073713;28;8857;-59
2022/12/15 09:16:33;;;;;;;;;8.00;6.75;;;;;-4.95;79.76;99202.00;5073191;28;9628;-59
2022/12/15 09:19:01;;;;;;;;;4.40;4.00;;;;;-4.92;79.64;99196.75;5073788;28;9519;-60
2022/12/15 09:21:29;;;;;;;;;0.80;0.80;;;;;-4.84;79.58;99191.31;5073203;28;8862;-59
2022/12/15 09:23:59;;;;;;;;;3.00;3.00;;;;;-4.76;79.75;99194.50;5073721;28;8847;-60
2022/12/15 09:26:27;;;;;;;;;4.80;4.80;;;;;-4.67;79.22;99204.59;5073432;28;8844;-57
2022/12/15 09:28:55;;;;;;;;;6.40;6.40;;;;;-4.59;79.71;99213.88;5073556;28;8956;-59
2022/12/15 09:31:23;;;;;;;;;6.80;6.80;;;;;-4.49;79.10;99209.25;5074786;28;8838;-59
2022/12/15 09:33:52;;;;;;;;;5.80;5.80;;;;;-4.40;79.36;99207.19;5074725;28;8856;-59
2022/12/15 09:36:19;;;;;;;;;6.00;5.80;;;;;-4.30;79.09;99213.81;5074688;28;8880;-59
2022/12/15 09:38:47;;;;;;;;;6.00;6.00;;;;;-4.22;79.21;99211.81;5074977;28;8818;-59
2022/12/15 09:41:15;;;;;;;;;3.60;3.40;;;;;-4.12;78.98;99220.16;5074418;28;8960;-60
2022/12/15 09:43:43;;;;;;;;;5.60;5.60;;;;;-3.99;78.96;99224.88;5073397;28;8854;-59
2022/12/15 09:46:14;;;;;;;;;4.00;4.00;;;;;-3.85;78.08;99233.09;5073070;28;8845;-59
2022/12/15 09:48:42;;;;;;;;;9.80;9.00;;;;;-3.67;78.60;99224.63;5072803;28;9506;-60
2022/12/15 09:51:10;;;;;;;;;9.80;6.20;;;;;-3.38;78.07;99234.88;5073889;28;8830;-59
2022/12/15 09:53:37;;;;;;;;;6.20;6.20;;;;;-3.10;77.15;99235.59;5073484;28;8841;-59
2022/12/15 09:56:22;;;;;;;;;4.00;4.00;;;;;-2.75;76.57;99232.50;5073252;28;9519;-59
2022/12/15 09:58:50;;;;;;;;;5.60;4.80;;;;;-2.44;75.95;99226.06;5074033;28;8833;-59
2022/12/15 10:01:19;;;;;;;;;9.20;8.60;;;;;-1.97;75.34;99221.56;5074344;28;8826;-58
2022/12/15 10:03:47;;;;;;;;;9.40;9.20;;;;;-1.41;74.60;99228.69;5074375;28;8845;-59
2022/12/15 10:06:35;;;;;;;;;5.60;4.00;;;;;-0.80;73.83;99229.44;5072563;28;8860;-60
2022/12/15 10:09:03;;;;;;;;;6.20;5.60;;;;;-0.27;73.46;99223.41;5073150;28;8857;-58
2022/12/15 10:11:32;;;;;;;;;0.80;0.00;;;;;0.22;73.01;99225.31;5072908;28;9170;-59
2022/12/15 10:14:00;;;;;;;;;6.20;6.20;;;;;0.78;73.37;99224.13;5072945;28;8943;-60
2022/12/15 10:16:28;;;;;;;;;6.20;4.00;;;;;1.48;72.13;99218.59;5072162;28;8930;-60
2022/12/15 10:18:56;;;;;;;;;7.00;7.00;;;;;2.06;71.35;99214.44;5073300;28;9523;-60
2022/12/15 10:21:27;;;;;;;;;6.00;6.00;;;;;2.28;70.97;99213.09;5073173;28;8829;-59
2022/12/15 10:23:55;;;;;;;;;9.60;9.40;;;;;2.31;71.97;99210.31;5072282;28;8829;-60
2022/12/15 10:26:23;;;;;;;;;8.20;6.20;;;;;2.33;71.80;99221.56;5071824;28;9626;-59
2022/12/15 10:28:52;;;;;;;;;4.00;4.00;;;;;2.56;71.45;99218.44;5071626;28;8841;-60
2022/12/15 10:31:23;;;;;;;;;15.40;13.80;;;;;2.95;70.82;99208.16;5070824;28;8852;-59
2022/12/15 10:33:52;;;;;;;;;11.00;9.80;;;;;3.41;69.70;99198.28;5071073;28;8950;-60
2022/12/15 10:36:21;;;;;;;;;13.80;12.00;;;;;3.69;69.84;99199.06;5070094;28;8842;-60
2022/12/15 10:38:49;;;;;;;;;13.80;13.80;;;;;3.84;69.74;99201.59;5070698;28;8841;-60
2022/12/15 10:41:17;;;;;;;;;7.80;6.00;;;;;4.00;70.03;99198.78;5071870;28;8830;-61
2022/12/15 10:43:45;;;;;;;;;15.40;12.00;;;;;4.33;69.75;99209.75;5072214;28;9000;-60
2022/12/15 10:46:13;;;;;;;;;16.00;15.20;;;;;4.73;69.78;99191.13;5070697;28;8834;-61
2022/12/15 10:48:41;;;;;;;;;7.80;7.00;;;;;4.98;69.22;99195.59;5068922;28;8891;-60
2022/12/15 10:51:09;;;;;;;;;16.40;12.80;;;;;4.96;69.50;99195.72;5068535;28;8830;-60
2022/12/15 10:53:37;;;;;;;;;12.20;12.20;;;;;4.79;70.17;99192.53;5068424;28;8837;-61
2022/12/15 10:56:06;;;;;;;;;19.00;18.00;;;;;4.51;70.89;99200.63;5069307;28;8923;-60
2022/12/15 10:58:34;;;;;;;;;18.00;18.00;;;;;4.18;72.63;99200.25;5069960;28;9507;-60
2022/12/15 11:01:03;;;;;;;;;13.00;12.00;;;;;4.07;71.91;99195.66;5070294;28;8834;-60
2022/12/15 11:03:31;;;;;;;;;9.60;9.00;;;;;4.07;71.72;99200.06;5070913;28;8880;-60
2022/12/15 11:06:00;;;;;;;;;14.20;14.20;;;;;4.02;72.75;99192.47;5071272;28;8846;-60
2022/12/15 11:08:28;;;;;;;;;12.20;8.20;;;;;4.01;73.21;99176.75;5070995;28;8822;-60
2022/12/15 11:13:43;;;;;;;;;8.60;8.60;;;;;4.42;72.26;99175.72;5070973;28;8870;-61
2022/12/15 11:16:12;;;;;;;;;15.20;14.20;;;;;4.53;71.82;99172.34;5070413;28;8936;-61
2022/12/15 11:18:40;;;;;;;;;20.40;16.40;;;;;4.47;72.14;99172.75;5070262;28;8841;-61
2022/12/15 11:21:08;;;;;;;;;18.60;17.60;;;;;4.27;72.29;99176.75;5071164;28;8841;-60
2022/12/15 11:23:36;;;;;;;;;17.80;16.00;;;;;4.07;72.65;99176.38;5071152;28;8852;-60
2022/12/15 11:26:04;;;;;;;;;24.60;20.80;;;;;3.92;73.00;99180.88;5070608;28;8842;-60
2022/12/15 11:28:33;;;;;;;;;16.60;15.20;;;;;3.84;72.67;99187.56;5070275;28;9216;-61
2022/12/15 11:31:01;;;;;;;;;18.80;16.80;;;;;3.80;73.44;99178.19;5068998;28;8821;-60
2022/12/15 11:33:29;;;;;;;;;21.00;21.00;;;;;3.81;73.22;99182.50;5069345;28;9493;-61
2022/12/15 11:35:58;;;;;;;;;14.00;13.00;;;;;3.96;72.71;99177.06;5068776;28;8846;-60
2022/12/15 11:38:29;;;;;;;;;16.80;16.80;;;;;4.22;72.01;99175.34;5067822;28;8972;-61
2022/12/15 11:40:57;;;;;;;;;13.40;11.60;;;;;4.59;71.55;99172.81;5067203;28;8845;-61
2022/12/15 11:43:25;;;;;;;;;17.60;15.60;;;;;4.80;70.23;99166.03;5069064;28;8849;-61
2022/12/15 11:45:53;;;;;;;;;17.40;15.60;;;;;5.08;70.02;99167.63;5069664;28;8853;-61
2022/12/15 11:48:21;;;;;;;;;11.60;10.40;;;;;5.35;70.25;99149.84;5068990;28;8826;-61
2022/12/15 11:50:51;;;;;;;;;12.60;12.00;;;;;5.54;69.83;99150.22;5068030;28;8825;-61
2022/12/15 11:53:19;;;;;;;;;16.40;12.40;;;;;5.68;69.80;99156.19;5068344;28;8830;-61
2022/12/15 11:55:47;;;;;;;;;14.40;12.40;;;;;5.90;69.37;99151.06;5068234;28;8926;-61
2022/12/15 11:58:16;;;;;;;;;9.60;9.00;;;;;6.21;68.92;99153.13;5069280;28;8846;-62
2022/12/15 12:00:44;;;;;;;;;17.60;15.00;;;;;6.28;69.07;99150.84;5069861;28;8838;-61
2022/12/15 12:03:15;;;;;;;;;18.80;13.80;;;;;6.15;69.09;99144.81;5069018;28;8992;-61
2022/12/15 12:05:44;;;;;;;;;11.80;11.20;;;;;6.14;69.17;99146.59;5068461;28;8841;-61
2022/12/15 12:08:12;;;;;;;;;16.40;14.20;;;;;6.11;69.19;99146.00;5069159;28;8846;-62
2022/12/15 12:10:39;;;;;;;;;19.80;17.20;;;;;5.88;69.76;99147.69;5068406;28;8841;-61
2022/12/15 12:13:07;;;;;;;;;13.40;12.60;;;;;5.70;69.94;99143.72;5067817;28;8964;-61
2022/12/15 12:15:35;;;;;;;;;16.60;15.40;;;;;5.89;70.25;99145.88;5067692;28;8896;-61
2022/12/15 12:18:04;;;;;;;;;13.00;10.40;;;;;6.16;69.14;99141.22;5068671;28;8995;-61
2022/12/15 12:20:32;;;;;;;;;18.80;18.40;;;;;6.16;68.95;99143.84;5069227;28;8931;-61
2022/12/15 12:23:01;;;;;;;;;11.20;9.00;;;;;5.98;69.88;99143.41;5068903;28;8865;-61
2022/12/15 12:25:29;;;;;;;;;15.60;15.20;;;;;5.75;70.85;99136.31;5069577;28;8838;-60
2022/12/15 12:27:59;;;;;;;;;17.20;16.80;;;;;5.64;71.24;99130.13;5069978;28;8833;-61
2022/12/15 12:30:27;;;;;;;;;15.40;13.00;;;;;5.59;71.28;99140.16;5070708;28;8841;-61
2022/12/15 12:32:55;;;;;;;;;14.60;14.20;;;;;5.53;71.65;99136.19;5069597;28;8942;-60
2022/12/15 12:35:23;;;;;;;;;9.60;9.60;;;;;5.42;71.49;99135.25;5067605;28;8846;-61
2022/12/15 12:38:01;;;;;;;;;15.80;13.80;;;;;5.24;71.65;99134.78;5068574;28;8852;-60
2022/12/15 12:40:31;;;;;;;;;13.80;13.00;;;;;5.15;71.77;99130.16;5072485;28;8861;-61
2022/12/15 12:42:59;;;;;;;;;12.00;10.00;;;;;5.13;71.58;99131.19;5071900;28;8935;-60
2022/12/15 12:45:27;;;;;;;;;14.80;14.00;;;;;4.99;72.20;99123.41;5071849;28;9215;-60
2022/12/15 12:47:55;;;;;;;;;18.40;18.20;;;;;4.77;72.36;99134.63;5071614;28;8845;-60
2022/12/15 12:50:23;;;;;;;;;13.40;13.40;;;;;4.53;73.06;99146.00;5071077;28;8838;-61
2022/12/15 12:52:52;;;;;;;;;17.60;15.80;;;;;4.37;73.73;99142.72;5071449;28;8861;-60
2022/12/15 12:55:20;;;;;;;;;17.60;13.40;;;;;4.28;73.51;99140.72;5071247;28;9500;-61
2022/12/15 12:57:49;;;;;;;;;15.60;14.80;;;;;4.19;73.49;99141.31;5071429;28;8841;-60
2022/12/15 13:00:17;;;;;;;;;15.00;13.80;;;;;4.10;73.50;99134.03;5071770;28;8841;-60
2022/12/15 13:02:46;;;;;;;;;16.80;15.60;;;;;3.96;73.70;99126.22;5071687;28;8857;-60
2022/12/15 13:05:17;;;;;;;;;18.60;15.40;;;;;3.90;73.86;99129.25;5071899;28;8913;-61
2022/12/15 13:07:45;;;;;;;;;19.40;14.40;;;;;3.88;74.27;99125.88;5072391;28;9155;-61
2022/12/15 13:10:15;;;;;;;;;22.40;21.00;;;;;3.96;74.01;99119.13;5073658;28;8850;-61
2022/12/15 13:12:43;;;;;;;;;15.40;15.40;;;;;4.15;73.50;99116.97;5072869;28;8862;-60
2022/12/15 13:15:21;;;;;;;;;13.40;12.80;;;;;4.41;72.03;99109.94;5073336;28;9499;-60
2022/12/15 13:17:49;;;;;;;;;12.00;8.60;;;;;4.65;71.91;99100.34;5071863;28;8850;-60
2022/12/15 13:20:17;;;;;;;;;8.20;8.20;;;;;4.79;71.14;99095.81;5070652;28;9545;-60
2022/12/15 13:22:45;;;;;;;;;14.80;14.00;;;;;4.91;71.08;99094.09;5069824;28;8826;-60
2022/12/15 13:25:16;;;;;;;;;10.00;9.20;;;;;4.97;71.23;99089.25;5070080;28;8946;-61
2022/12/15 13:27:45;;;;;;;;;15.80;14.00;;;;;5.04;70.51;99084.38;5071201;28;8825;-60
2022/12/15 13:30:15;;;;;;;;;19.60;18.80;;;;;5.11;70.38;99080.34;5071607;28;8838;-60
2022/12/15 13:32:42;;;;;;;;;13.20;11.60;;;;;5.12;70.00;99077.63;5072522;28;8880;-60
2022/12/15 13:35:11;;;;;;;;;9.80;9.40;;;;;5.15;70.09;99085.28;5073060;28;8914;-60
2022/12/15 13:37:39;;;;;;;;;19.80;16.80;;;;;5.15;70.62;99074.75;5072542;28;8837;-60
2022/12/15 13:40:08;;;;;;;;;13.60;10.20;;;;;5.08;70.68;99077.94;5073515;28;8830;-60
2022/12/15 13:42:36;;;;;;;;;15.20;15.00;;;;;4.95;71.37;99074.47;5073382;28;8857;-60
2022/12/15 13:45:21;;;;;;;;;10.20;9.00;;;;;4.81;72.07;99079.88;5074248;28;8822;-60
2022/12/15 13:47:49;;;;;;;;;14.20;14.20;;;;;4.67;72.01;99080.84;5072400;28;8926;-60
2022/12/15 13:50:18;;;;;;;;;16.00;15.60;;;;;4.50;72.15;99086.44;5072429;28;9196;-60
2022/12/15 13:52:46;;;;;;;;;13.40;13.40;;;;;4.33;72.30;99078.00;5073215;28;8826;-60
2022/12/15 13:55:34;;;;;;;;;12.40;10.80;;;;;4.17;73.05;99078.19;5072291;28;8842;-60
2022/12/15 13:58:02;;;;;;;;;10.80;9.40;;;;;4.06;73.08;99083.38;5072007;28;8865;-60
2022/12/15 14:00:31;;;;;;;;;9.20;9.20;;;;;3.94;73.38;99068.38;5072623;28;8841;-61
2022/12/15 14:02:59;;;;;;;;;10.80;9.40;;;;;3.85;73.88;99081.28;5073259;28;9499;-60
2022/12/15 14:05:28;;;;;;;;;17.60;15.00;;;;;3.66;73.94;99077.34;5073186;28;8948;-60
2022/12/15 14:07:56;;;;;;;;;15.20;12.80;;;;;3.47;73.74;99074.25;5071929;28;8952;-59
2022/12/15 14:10:25;;;;;;;;;15.20;14.20;;;;;3.28;74.53;99079.00;5073457;28;8947;-60